Time,TemperatureF,DewpointF,PressureIn,WindDirection,WindDirectionDegrees,WindSpeedMPH,WindSpeedGustMPH,Humidity,HourlyPrecipIn,Conditions,Clouds,dailyrainin,SoftwareType,DateUTC
2013-04-22 00:01:00,78.9,65.7,30.01,ENE,68,4.6,4.6,64,0.00,,---,0.00,VWS V13.01,2013-04-22 04:01:00,
2013-04-22 00:06:00,78.9,65.7,30.00,NE,45,5.8,5.8,64,0.00,,---,0.00,VWS V13.01,2013-04-22 04:06:00,
2013-04-22 00:11:00,78.9,65.7,30.00,East,90,4.9,4.9,64,0.00,,---,0.00,VWS V13.01,2013-04-22 04:11:00,
2013-04-22 00:16:00,78.9,65.7,30.00,East,90,5.5,5.5,64,0.00,,---,0.00,VWS V13.01,2013-04-22 04:16:00,
2013-04-22 00:21:00,78.9,66.2,30.00,ENE,68,0.0,0.0,65,0.00,,---,0.00,VWS V13.01,2013-04-22 04:21:00,
2013-04-22 00:26:00,78.9,66.2,30.00,ENE,68,7.6,7.6,65,0.00,,---,0.00,VWS V13.01,2013-04-22 04:26:00,
2013-04-22 00:31:00,78.9,66.2,29.99,East,90,3.5,3.5,65,0.00,,---,0.00,VWS V13.01,2013-04-22 04:31:00,
2013-04-22 00:36:00,78.9,65.7,29.99,ESE,112,4.4,4.4,64,0.00,,---,0.00,VWS V13.01,2013-04-22 04:36:00,
2013-04-22 00:41:00,78.9,66.2,29.99,ENE,68,11.1,11.1,65,0.00,,---,0.00,VWS V13.01,2013-04-22 04:41:00,
2013-04-22 00:46:00,78.9,65.7,29.98,SE,135,6.2,6.2,64,0.00,,---,0.00,VWS V13.01,2013-04-22 04:46:00,
2013-04-22 00:51:00,78.6,65.9,29.98,ESE,112,6.7,6.7,65,0.00,,---,0.00,VWS V13.01,2013-04-22 04:51:00,
2013-04-22 00:56:00,78.6,65.9,29.98,ENE,68,4.4,4.4,65,0.00,,---,0.00,VWS V13.01,2013-04-22 04:56:00,
2013-04-22 01:01:00,78.6,65.4,29.98,ENE,68,7.6,7.6,64,0.00,,---,0.00,VWS V13.01,2013-04-22 05:01:00,
2013-04-22 01:06:00,78.6,65.4,29.98,East,90,7.6,7.6,64,0.00,,---,0.00,VWS V13.01,2013-04-22 05:06:00,
2013-04-22 01:11:00,78.6,65.0,29.98,East,90,4.4,4.4,63,0.00,,---,0.00,VWS V13.01,2013-04-22 05:11:00,
2013-04-22 01:15:00,78.6,65.4,29.98,ENE,68,6.0,6.0,64,0.00,,---,0.00,VWS V13.01,2013-04-22 05:15:00,
2013-04-22 01:20:00,78.4,64.8,29.97,East,90,5.8,5.8,63,0.00,,---,0.00,VWS V13.01,2013-04-22 05:20:00,
2013-04-22 01:25:00,78.4,65.2,29.97,East,90,5.3,5.3,64,0.00,,---,0.00,VWS V13.01,2013-04-22 05:25:00,
2013-04-22 01:30:00,78.4,65.2,29.97,East,90,4.9,4.9,64,0.00,,---,0.00,VWS V13.01,2013-04-22 05:30:00,
2013-04-22 01:35:00,78.2,64.6,29.97,SE,135,3.5,3.5,63,0.00,,---,0.00,VWS V13.01,2013-04-22 05:35:00,
2013-04-22 01:40:00,78.0,64.8,29.97,ENE,68,6.4,6.4,64,0.00,,---,0.00,VWS V13.01,2013-04-22 05:40:00,
2013-04-22 01:45:00,78.0,65.7,29.96,ENE,68,0.0,0.0,66,0.00,,---,0.00,VWS V13.01,2013-04-22 05:45:00,
2013-04-22 01:50:00,78.0,65.3,29.97,SE,135,7.3,7.3,65,0.00,,---,0.00,VWS V13.01,2013-04-22 05:50:00,
2013-04-22 01:55:00,78.0,64.8,29.97,ESE,112,8.0,8.0,64,0.00,,---,0.00,VWS V13.01,2013-04-22 05:55:00,
2013-04-22 02:00:00,78.0,64.4,29.97,NNE,22,4.9,4.9,63,0.00,,---,0.00,VWS V13.01,2013-04-22 06:00:00,
2013-04-22 02:05:00,78.0,64.4,29.96,ENE,68,5.5,5.5,63,0.00,,---,0.00,VWS V13.01,2013-04-22 06:05:00,
2013-04-22 02:10:00,77.9,64.3,29.96,ESE,112,10.7,10.7,63,0.00,,---,0.00,VWS V13.01,2013-04-22 06:10:00,
2013-04-22 02:15:00,77.7,64.1,29.96,East,90,2.4,2.4,63,0.00,,---,0.00,VWS V13.01,2013-04-22 06:15:00,
2013-04-22 02:20:00,77.7,64.6,29.96,ENE,68,1.1,1.1,64,0.00,,---,0.00,VWS V13.01,2013-04-22 06:20:00,
2013-04-22 02:25:00,77.7,64.6,29.96,ENE,68,0.0,0.0,64,0.00,,---,0.00,VWS V13.01,2013-04-22 06:25:00,
2013-04-22 02:30:00,77.7,64.6,29.96,SSE,158,0.0,0.0,64,0.00,,---,0.00,VWS V13.01,2013-04-22 06:30:00,
2013-04-22 02:35:00,77.5,63.9,29.96,ENE,68,0.0,0.0,63,0.00,,---,0.00,VWS V13.01,2013-04-22 06:35:00,
2013-04-22 02:40:00,77.5,63.5,29.95,ENE,68,1.1,1.1,62,0.00,,---,0.00,VWS V13.01,2013-04-22 06:40:00,
2013-04-22 02:45:00,77.5,63.9,29.95,East,90,1.7,1.7,63,0.00,,---,0.00,VWS V13.01,2013-04-22 06:45:00,
2013-04-22 02:50:00,77.5,63.5,29.95,ENE,68,10.5,10.5,62,0.00,,---,0.00,VWS V13.01,2013-04-22 06:50:00,
2013-04-22 02:55:00,77.5,63.5,29.95,ENE,68,3.3,3.3,62,0.00,,---,0.00,VWS V13.01,2013-04-22 06:55:00,
2013-04-22 03:00:00,77.3,63.3,29.95,NE,45,1.7,1.7,62,0.00,,---,0.00,VWS V13.01,2013-04-22 07:00:00,
2013-04-22 03:05:00,77.3,63.3,29.95,SSE,158,4.9,4.9,62,0.00,,---,0.00,VWS V13.01,2013-04-22 07:05:00,
2013-04-22 03:10:00,77.3,63.7,29.95,SE,135,2.9,2.9,63,0.00,,---,0.00,VWS V13.01,2013-04-22 07:10:00,
2013-04-22 03:15:00,77.1,64.0,29.95,SE,135,0.0,0.0,64,0.00,,---,0.00,VWS V13.01,2013-04-22 07:15:00,
2013-04-22 03:20:00,77.0,63.9,29.95,South,180,0.0,0.0,64,0.00,,---,0.00,VWS V13.01,2013-04-22 07:20:00,
2013-04-22 03:25:00,76.8,64.2,29.95,SSE,158,2.4,2.4,65,0.00,,---,0.00,VWS V13.01,2013-04-22 07:25:00,
2013-04-22 03:30:00,76.8,64.2,29.95,SE,135,3.5,3.5,65,0.00,,---,0.00,VWS V13.01,2013-04-22 07:30:00,
2013-04-22 03:35:00,76.6,64.4,29.94,South,180,2.2,2.2,66,0.00,,---,0.00,VWS V13.01,2013-04-22 07:35:00,
2013-04-22 03:40:00,76.6,64.4,29.95,SSE,158,0.0,1.7,66,0.00,,---,0.00,VWS V13.01,2013-04-22 07:40:00,
2013-04-22 03:45:00,76.4,64.2,29.94,South,180,0.0,0.0,66,0.00,,---,0.00,VWS V13.01,2013-04-22 07:45:00,
2013-04-22 03:50:00,76.2,64.4,29.94,South,180,0.0,0.0,67,0.00,,---,0.00,VWS V13.01,2013-04-22 07:50:00,
2013-04-22 03:55:00,76.2,64.4,29.94,SSW,202,0.0,0.0,67,0.00,,---,0.00,VWS V13.01,2013-04-22 07:55:00,
2013-04-22 04:00:00,76.1,64.4,29.95,SSE,158,0.0,0.0,67,0.00,,---,0.00,VWS V13.01,2013-04-22 08:00:00,
2013-04-22 04:05:00,76.1,64.4,29.95,SE,135,0.0,0.0,67,0.00,,---,0.00,VWS V13.01,2013-04-22 08:05:00,
2013-04-22 04:10:00,75.9,64.2,29.95,SSE,158,0.0,0.0,67,0.00,,---,0.00,VWS V13.01,2013-04-22 08:10:00,
2013-04-22 04:15:00,75.9,64.6,29.95,South,180,0.0,0.0,68,0.00,,---,0.00,VWS V13.01,2013-04-22 08:15:00,
2013-04-22 04:20:00,75.9,64.6,29.95,SSE,158,0.0,0.0,68,0.00,,---,0.00,VWS V13.01,2013-04-22 08:20:00,
2013-04-22 04:25:00,75.9,64.6,29.95,SSE,158,0.0,0.0,68,0.00,,---,0.00,VWS V13.01,2013-04-22 08:25:00,
2013-04-22 04:30:00,75.9,64.6,29.95,ESE,112,0.0,0.0,68,0.00,,---,0.00,VWS V13.01,2013-04-22 08:30:00,
2013-04-22 04:35:00,75.9,64.6,29.95,South,180,0.0,0.0,68,0.00,,---,0.00,VWS V13.01,2013-04-22 08:35:00,
2013-04-22 04:40:00,75.7,64.4,29.95,SSE,158,0.0,0.0,68,0.00,,---,0.00,VWS V13.01,2013-04-22 08:40:00,
2013-04-22 04:45:00,75.5,64.2,29.96,South,180,0.0,0.0,68,0.00,,---,0.00,VWS V13.01,2013-04-22 08:45:00,
2013-04-22 04:50:00,75.3,64.0,29.96,SSW,202,0.0,0.0,68,0.00,,---,0.00,VWS V13.01,2013-04-22 08:50:00,
2013-04-22 04:55:00,75.3,64.0,29.95,South,180,0.0,0.0,68,0.00,,---,0.00,VWS V13.01,2013-04-22 08:55:00,
2013-04-22 05:00:00,75.3,64.0,29.95,South,180,0.0,0.0,68,0.00,,---,0.00,VWS V13.01,2013-04-22 09:00:00,
2013-04-22 05:05:00,75.3,63.6,29.96,SSW,202,0.0,0.0,67,0.00,,---,0.00,VWS V13.01,2013-04-22 09:05:00,
2013-04-22 05:10:00,75.3,63.6,29.96,South,180,0.0,0.0,67,0.00,,---,0.00,VWS V13.01,2013-04-22 09:10:00,
2013-04-22 05:15:00,75.3,63.6,29.96,South,180,0.0,0.0,67,0.00,,---,0.00,VWS V13.01,2013-04-22 09:15:00,
2013-04-22 05:20:00,75.3,63.6,29.96,SSW,202,0.0,0.0,67,0.00,,---,0.00,VWS V13.01,2013-04-22 09:20:00,
2013-04-22 05:25:00,75.3,63.6,29.96,South,180,0.0,0.0,67,0.00,,---,0.00,VWS V13.01,2013-04-22 09:25:00,
2013-04-22 05:30:00,75.3,63.6,29.97,SSW,202,0.0,0.0,67,0.00,,---,0.00,VWS V13.01,2013-04-22 09:30:00,
2013-04-22 05:35:00,75.3,63.6,29.96,SW,225,0.0,0.0,67,0.00,,---,0.00,VWS V13.01,2013-04-22 09:35:00,
2013-04-22 05:40:00,75.3,63.6,29.96,WNW,292,0.0,0.0,67,0.00,,---,0.00,VWS V13.01,2013-04-22 09:40:00,
2013-04-22 05:45:00,75.3,63.6,29.97,WSW,248,0.0,0.0,67,0.00,,---,0.00,VWS V13.01,2013-04-22 09:45:00,
2013-04-22 05:50:00,75.3,63.6,29.97,South,180,0.0,0.0,67,0.00,,---,0.00,VWS V13.01,2013-04-22 09:50:00,
2013-04-22 05:55:00,75.3,63.6,29.98,South,180,0.0,0.0,67,0.00,,---,0.00,VWS V13.01,2013-04-22 09:55:00,
2013-04-22 06:00:00,75.3,64.0,29.97,SW,225,0.0,0.0,68,0.00,,---,0.00,VWS V13.01,2013-04-22 10:00:00,
2013-04-22 06:05:00,75.3,64.0,29.98,SSW,202,0.0,0.0,68,0.00,,---,0.00,VWS V13.01,2013-04-22 10:05:00,
2013-04-22 06:10:00,75.3,64.0,29.98,SSW,202,0.0,0.0,68,0.00,,---,0.00,VWS V13.01,2013-04-22 10:10:00,
2013-04-22 06:15:00,75.3,64.0,29.98,SSE,158,0.0,0.0,68,0.00,,---,0.00,VWS V13.01,2013-04-22 10:15:00,
2013-04-22 06:20:00,75.3,64.0,29.99,South,180,0.0,0.0,68,0.00,,---,0.00,VWS V13.01,2013-04-22 10:20:00,
2013-04-22 06:25:00,75.5,64.6,29.98,South,180,0.0,0.0,69,0.00,,---,0.00,VWS V13.01,2013-04-22 10:25:00,
2013-04-22 06:30:00,75.7,65.2,29.98,South,180,0.0,0.0,70,0.00,,---,0.00,VWS V13.01,2013-04-22 10:30:00,
2013-04-22 06:35:00,75.3,65.3,29.99,SSW,202,0.0,0.0,71,0.00,,---,0.00,VWS V13.01,2013-04-22 10:35:00,
2013-04-22 06:40:00,75.3,65.3,29.99,SW,225,0.0,0.0,71,0.00,,---,0.00,VWS V13.01,2013-04-22 10:40:00,
2013-04-22 06:45:00,75.2,65.6,29.99,SSE,158,0.0,0.0,72,0.00,,---,0.00,VWS V13.01,2013-04-22 10:45:00,
2013-04-22 06:50:00,75.0,65.4,29.99,SSW,202,0.0,0.0,72,0.00,,---,0.00,VWS V13.01,2013-04-22 10:50:00,
2013-04-22 06:55:00,75.3,65.7,29.99,SW,225,0.0,0.0,72,0.00,,---,0.00,VWS V13.01,2013-04-22 10:55:00,
2013-04-22 07:00:00,75.2,65.6,29.99,South,180,0.0,0.0,72,0.00,,---,0.00,VWS V13.01,2013-04-22 11:00:00,
2013-04-22 07:05:00,75.3,65.7,30.00,SW,225,0.0,0.0,72,0.00,,---,0.00,VWS V13.01,2013-04-22 11:05:00,
2013-04-22 07:10:00,75.5,65.4,30.00,SSW,202,0.0,0.0,71,0.00,,---,0.00,VWS V13.01,2013-04-22 11:10:00,
2013-04-22 07:15:00,75.7,65.6,29.99,SSW,202,0.0,0.0,71,0.00,,---,0.00,VWS V13.01,2013-04-22 11:15:00,
2013-04-22 07:20:00,76.2,66.1,29.99,SSW,202,0.0,0.0,71,0.00,,---,0.00,VWS V13.01,2013-04-22 11:20:00,
2013-04-22 07:25:00,76.2,66.1,29.99,South,180,0.0,0.0,71,0.00,,---,0.00,VWS V13.01,2013-04-22 11:25:00,
2013-04-22 07:30:00,76.4,66.3,29.99,SSE,158,0.0,0.0,71,0.00,,---,0.00,VWS V13.01,2013-04-22 11:30:00,
2013-04-22 07:35:00,76.4,65.9,29.99,ESE,112,0.0,0.0,70,0.00,,---,0.00,VWS V13.01,2013-04-22 11:35:00,
2013-04-22 07:40:00,76.6,66.1,30.00,SSE,158,0.0,0.0,70,0.00,,---,0.00,VWS V13.01,2013-04-22 11:40:00,
2013-04-22 07:45:00,76.8,66.3,29.99,South,180,1.5,1.5,70,0.00,,---,0.00,VWS V13.01,2013-04-22 11:45:00,
2013-04-22 07:50:00,76.8,66.3,30.00,SE,135,0.0,0.0,70,0.00,,---,0.00,VWS V13.01,2013-04-22 11:50:00,
2013-04-22 07:55:00,77.0,66.1,30.00,SE,135,0.0,0.0,69,0.00,,---,0.00,VWS V13.01,2013-04-22 11:55:00,
2013-04-22 08:00:00,77.3,66.3,29.99,East,90,2.0,2.0,69,0.00,,---,0.00,VWS V13.01,2013-04-22 12:00:00,
2013-04-22 08:05:00,77.5,66.5,30.00,ENE,68,0.0,0.0,69,0.00,,---,0.00,VWS V13.01,2013-04-22 12:05:00,
2013-04-22 08:10:00,77.9,66.9,29.99,East,90,0.0,0.0,69,0.00,,---,0.00,VWS V13.01,2013-04-22 12:10:00,
2013-04-22 08:15:00,78.0,67.0,29.99,South,180,5.3,5.3,69,0.00,,---,0.00,VWS V13.01,2013-04-22 12:15:00,
2013-04-22 08:20:00,78.4,67.0,30.00,ENE,68,7.3,7.3,68,0.00,,---,0.00,VWS V13.01,2013-04-22 12:20:00,
2013-04-22 08:25:00,78.6,66.7,30.00,ESE,112,5.8,5.8,67,0.00,,---,0.00,VWS V13.01,2013-04-22 12:25:00,
2013-04-22 08:30:00,79.1,66.8,30.00,ENE,68,1.5,1.5,66,0.00,,---,0.00,VWS V13.01,2013-04-22 12:30:00,
2013-04-22 08:35:00,79.5,67.2,30.00,ESE,112,7.3,7.3,66,0.00,,---,0.00,VWS V13.01,2013-04-22 12:35:00,
2013-04-22 08:40:00,79.7,66.9,30.00,ENE,68,5.8,5.8,65,0.00,,---,0.00,VWS V13.01,2013-04-22 12:40:00,
2013-04-22 08:45:00,79.8,67.0,30.00,ENE,68,2.2,2.2,65,0.00,,---,0.00,VWS V13.01,2013-04-22 12:45:00,
2013-04-22 08:50:00,80.2,67.4,30.01,East,90,3.3,3.3,65,0.00,,---,0.00,VWS V13.01,2013-04-22 12:50:00,
2013-04-22 08:55:00,80.4,67.1,30.00,East,90,7.1,7.1,64,0.00,,---,0.00,VWS V13.01,2013-04-22 12:55:00,
2013-04-22 09:00:00,80.4,66.7,30.00,ESE,112,2.0,2.0,63,0.00,,---,0.00,VWS V13.01,2013-04-22 13:00:00,
2013-04-22 09:05:00,80.7,66.9,30.01,ESE,112,6.4,6.4,63,0.00,,---,0.00,VWS V13.01,2013-04-22 13:05:00,
2013-04-22 09:10:00,80.7,66.5,30.00,SE,135,5.5,5.5,62,0.00,,---,0.00,VWS V13.01,2013-04-22 13:10:00,
2013-04-22 09:15:00,81.1,66.4,30.00,ENE,68,6.2,6.2,61,0.00,,---,0.00,VWS V13.01,2013-04-22 13:15:00,
2013-04-22 09:20:00,81.1,66.4,30.00,SE,135,8.5,8.5,61,0.00,,---,0.00,VWS V13.01,2013-04-22 13:20:00,
2013-04-22 09:25:00,81.3,66.6,30.00,ENE,68,8.0,8.0,61,0.00,,---,0.00,VWS V13.01,2013-04-22 13:25:00,
2013-04-22 09:30:00,81.5,66.8,30.00,ENE,68,7.3,7.3,61,0.00,,---,0.00,VWS V13.01,2013-04-22 13:30:00,
2013-04-22 09:35:00,81.6,67.3,30.00,East,90,8.5,8.5,62,0.00,,---,0.00,VWS V13.01,2013-04-22 13:35:00,
2013-04-22 09:39:00,81.8,67.1,30.00,East,90,4.0,4.0,61,0.00,,---,0.00,VWS V13.01,2013-04-22 13:39:00,
2013-04-22 09:44:00,81.6,66.9,30.00,ENE,68,7.6,7.6,61,0.00,,---,0.00,VWS V13.01,2013-04-22 13:44:00,
2013-04-22 09:49:00,82.0,67.2,30.01,East,90,10.0,10.0,61,0.00,,---,0.00,VWS V13.01,2013-04-22 13:49:00,
2013-04-22 09:54:00,82.2,66.5,30.00,ESE,112,3.8,3.8,59,0.00,,---,0.00,VWS V13.01,2013-04-22 13:54:00,
2013-04-22 09:59:00,82.2,66.9,30.00,East,90,7.1,7.1,60,0.00,,---,0.00,VWS V13.01,2013-04-22 13:59:00,
2013-04-22 10:04:00,82.2,66.9,30.00,NE,45,0.0,0.0,60,0.00,,---,0.00,VWS V13.01,2013-04-22 14:04:00,
2013-04-22 10:09:00,82.5,67.2,30.01,ENE,68,13.6,13.6,60,0.00,,---,0.00,VWS V13.01,2013-04-22 14:09:00,
2013-04-22 10:14:00,82.5,67.2,30.01,ENE,68,10.2,10.2,60,0.00,,---,0.00,VWS V13.01,2013-04-22 14:14:00,
2013-04-22 10:19:00,82.7,66.9,30.01,ENE,68,6.9,6.9,59,0.00,,---,0.00,VWS V13.01,2013-04-22 14:19:00,
2013-04-22 10:24:00,82.9,67.1,30.00,NE,45,2.4,2.4,59,0.00,,---,0.00,VWS V13.01,2013-04-22 14:24:00,
2013-04-22 10:29:00,82.9,67.1,30.01,East,90,7.1,7.1,59,0.00,,---,0.00,VWS V13.01,2013-04-22 14:29:00,
2013-04-22 10:34:00,83.1,67.3,30.01,ENE,68,1.5,1.5,59,0.00,,---,0.00,VWS V13.01,2013-04-22 14:34:00,
2013-04-22 10:39:00,83.1,67.3,30.00,ENE,68,9.6,9.6,59,0.00,,---,0.00,VWS V13.01,2013-04-22 14:39:00,
2013-04-22 10:44:00,83.1,67.3,30.01,ENE,68,10.0,10.0,59,0.00,,---,0.00,VWS V13.01,2013-04-22 14:44:00,
2013-04-22 10:49:00,83.1,66.8,30.01,ENE,68,8.5,8.5,58,0.00,,---,0.00,VWS V13.01,2013-04-22 14:49:00,
2013-04-22 10:54:00,83.1,66.8,30.00,ENE,68,9.8,9.8,58,0.00,,---,0.00,VWS V13.01,2013-04-22 14:54:00,
2013-04-22 10:59:00,83.3,67.5,30.00,ENE,68,10.2,10.2,59,0.00,,---,0.00,VWS V13.01,2013-04-22 14:59:00,
2013-04-22 11:04:00,83.3,67.0,30.00,SE,135,6.0,6.0,58,0.00,,---,0.00,VWS V13.01,2013-04-22 15:04:00,
2013-04-22 11:09:00,83.4,67.6,30.00,ESE,112,4.0,4.0,59,0.00,,---,0.00,VWS V13.01,2013-04-22 15:09:00,
2013-04-22 11:14:00,83.6,67.8,29.99,ENE,68,6.0,6.0,59,0.00,,---,0.00,VWS V13.01,2013-04-22 15:14:00,
2013-04-22 11:19:00,83.8,68.0,30.00,ENE,68,6.2,6.2,59,0.00,,---,0.00,VWS V13.01,2013-04-22 15:19:00,
2013-04-22 11:24:00,84.0,67.7,29.99,ENE,68,7.3,7.3,58,0.00,,---,0.00,VWS V13.01,2013-04-22 15:24:00,
2013-04-22 11:29:00,84.0,68.1,29.99,East,90,8.0,8.0,59,0.00,,---,0.00,VWS V13.01,2013-04-22 15:29:00,
2013-04-22 11:34:00,84.0,68.1,29.99,East,90,10.7,10.7,59,0.00,,---,0.00,VWS V13.01,2013-04-22 15:34:00,
2013-04-22 11:39:00,84.2,67.8,29.99,ENE,68,9.1,9.1,58,0.00,,---,0.00,VWS V13.01,2013-04-22 15:39:00,
2013-04-22 11:44:00,84.3,67.9,29.99,ENE,68,7.6,7.6,58,0.00,,---,0.00,VWS V13.01,2013-04-22 15:44:00,
2013-04-22 11:49:00,84.3,67.9,29.98,ENE,68,8.9,8.9,58,0.00,,---,0.00,VWS V13.01,2013-04-22 15:49:00,
2013-04-22 11:54:00,84.3,67.9,29.99,ESE,112,8.2,8.2,58,0.00,,---,0.00,VWS V13.01,2013-04-22 15:54:00,
2013-04-22 11:59:00,84.3,67.9,29.98,NE,45,3.8,3.8,58,0.00,,---,0.00,VWS V13.01,2013-04-22 15:59:00,
2013-04-22 12:04:00,84.3,67.9,29.98,East,90,5.3,5.3,58,0.00,,---,0.00,VWS V13.01,2013-04-22 16:04:00,
2013-04-22 12:09:00,84.5,68.1,29.98,ENE,68,11.6,11.6,58,0.00,,---,0.00,VWS V13.01,2013-04-22 16:09:00,
2013-04-22 12:14:00,84.7,68.3,29.98,East,90,14.7,14.7,58,0.00,,---,0.00,VWS V13.01,2013-04-22 16:14:00,
2013-04-22 12:19:00,84.7,68.3,29.98,ESE,112,5.8,5.8,58,0.00,,---,0.00,VWS V13.01,2013-04-22 16:19:00,
2013-04-22 12:24:00,84.7,67.8,29.98,ENE,68,15.8,15.8,57,0.00,,---,0.00,VWS V13.01,2013-04-22 16:24:00,
2013-04-22 12:29:00,84.9,68.5,29.97,ENE,68,14.0,14.0,58,0.00,,---,0.00,VWS V13.01,2013-04-22 16:29:00,
2013-04-22 12:34:00,84.9,68.5,29.97,East,90,8.9,8.9,58,0.00,,---,0.00,VWS V13.01,2013-04-22 16:34:00,
2013-04-22 12:39:00,85.2,68.3,29.97,East,90,4.4,4.4,57,0.00,,---,0.00,VWS V13.01,2013-04-22 16:39:00,
2013-04-22 12:44:00,85.2,68.3,29.97,ENE,68,16.7,16.7,57,0.00,,---,0.00,VWS V13.01,2013-04-22 16:44:00,
2013-04-22 12:49:00,85.6,68.6,29.96,East,90,6.2,6.2,57,0.00,,---,0.00,VWS V13.01,2013-04-22 16:49:00,
2013-04-22 12:54:00,85.8,68.8,29.96,NE,45,9.3,9.3,57,0.00,,---,0.00,VWS V13.01,2013-04-22 16:54:00,
2013-04-22 12:59:00,85.8,68.8,29.96,ESE,112,2.2,2.2,57,0.00,,---,0.00,VWS V13.01,2013-04-22 16:59:00,
2013-04-22 13:04:00,86.1,69.1,29.96,East,90,7.3,7.3,57,0.00,,---,0.00,VWS V13.01,2013-04-22 17:04:00,
2013-04-22 13:09:00,86.3,68.8,29.96,NE,45,10.7,10.7,56,0.00,,---,0.00,VWS V13.01,2013-04-22 17:09:00,
2013-04-22 13:14:00,86.5,69.0,29.95,East,90,5.8,5.8,56,0.00,,---,0.00,VWS V13.01,2013-04-22 17:14:00,
2013-04-22 13:19:00,86.7,68.6,29.96,ENE,68,11.4,11.4,55,0.00,,---,0.00,VWS V13.01,2013-04-22 17:19:00,
2013-04-22 13:24:00,86.9,68.3,29.96,ENE,68,6.0,6.0,54,0.00,,---,0.00,VWS V13.01,2013-04-22 17:24:00,
2013-04-22 13:29:00,87.0,68.4,29.95,ESE,112,6.9,6.9,54,0.00,,---,0.00,VWS V13.01,2013-04-22 17:29:00,
2013-04-22 13:34:00,87.4,68.7,29.95,East,90,10.9,10.9,54,0.00,,---,0.00,VWS V13.01,2013-04-22 17:34:00,
2013-04-22 13:39:00,87.6,68.9,29.95,ENE,68,8.5,8.5,54,0.00,,---,0.00,VWS V13.01,2013-04-22 17:39:00,
2013-04-22 13:44:00,87.6,70.0,29.95,ENE,68,8.0,8.0,56,0.00,,---,0.00,VWS V13.01,2013-04-22 17:44:00,
2013-04-22 13:49:00,87.9,70.3,29.95,NE,45,10.5,10.5,56,0.00,,---,0.00,VWS V13.01,2013-04-22 17:49:00,
2013-04-22 13:54:00,87.9,70.8,29.94,East,90,0.0,0.0,57,0.00,,---,0.00,VWS V13.01,2013-04-22 17:54:00,
2013-04-22 13:59:00,87.8,70.7,29.95,ENE,68,4.6,4.6,57,0.00,,---,0.00,VWS V13.01,2013-04-22 17:59:00,
2013-04-22 14:04:00,87.8,70.7,29.94,ENE,68,6.9,6.9,57,0.00,,---,0.00,VWS V13.01,2013-04-22 18:04:00,
2013-04-22 14:09:00,87.8,70.7,29.94,ENE,68,10.5,10.5,57,0.00,,---,0.00,VWS V13.01,2013-04-22 18:09:00,
2013-04-22 14:14:00,87.6,70.5,29.93,East,90,8.7,8.7,57,0.00,,---,0.00,VWS V13.01,2013-04-22 18:14:00,
2013-04-22 14:19:00,87.8,70.7,29.94,East,90,7.3,7.3,57,0.00,,---,0.00,VWS V13.01,2013-04-22 18:19:00,
2013-04-22 14:24:00,87.9,70.8,29.94,NE,45,7.1,7.1,57,0.00,,---,0.00,VWS V13.01,2013-04-22 18:24:00,
2013-04-22 14:29:00,88.3,71.2,29.93,East,90,4.9,4.9,57,0.00,,---,0.00,VWS V13.01,2013-04-22 18:29:00,
2013-04-22 14:34:00,88.3,71.2,29.93,ENE,68,9.6,9.6,57,0.00,,---,0.00,VWS V13.01,2013-04-22 18:34:00,
2013-04-22 14:39:00,88.3,71.2,29.93,SSW,202,2.0,2.0,57,0.00,,---,0.00,VWS V13.01,2013-04-22 18:39:00,
2013-04-22 14:44:00,88.3,71.2,29.93,ENE,68,6.0,6.0,57,0.00,,---,0.00,VWS V13.01,2013-04-22 18:44:00,
2013-04-22 14:49:00,88.7,71.5,29.93,ENE,68,10.7,10.7,57,0.00,,---,0.00,VWS V13.01,2013-04-22 18:49:00,
2013-04-22 14:54:00,88.5,71.3,29.92,ENE,68,14.0,14.0,57,0.00,,---,0.00,VWS V13.01,2013-04-22 18:54:00,
2013-04-22 14:59:00,88.5,71.8,29.92,ENE,68,12.5,12.5,58,0.00,,---,0.00,VWS V13.01,2013-04-22 18:59:00,
2013-04-22 15:04:00,88.5,71.8,29.92,East,90,7.6,7.6,58,0.00,,---,0.00,VWS V13.01,2013-04-22 19:04:00,
2013-04-22 15:09:00,88.5,71.8,29.92,NE,45,8.5,8.5,58,0.00,,---,0.00,VWS V13.01,2013-04-22 19:09:00,
2013-04-22 15:14:00,88.8,71.6,29.92,East,90,6.9,6.9,57,0.00,,---,0.00,VWS V13.01,2013-04-22 19:14:00,
2013-04-22 15:19:00,88.8,71.6,29.91,East,90,2.4,2.4,57,0.00,,---,0.00,VWS V13.01,2013-04-22 19:19:00,
2013-04-22 15:24:00,89.2,72.0,29.92,ENE,68,6.9,6.9,57,0.00,,---,0.00,VWS V13.01,2013-04-22 19:24:00,
2013-04-22 15:29:00,89.2,72.0,29.92,NE,45,3.1,3.1,57,0.00,,---,0.00,VWS V13.01,2013-04-22 19:29:00,
2013-04-22 15:34:00,89.4,72.2,29.92,North,0,1.5,1.5,57,0.00,,---,0.00,VWS V13.01,2013-04-22 19:34:00,
2013-04-22 15:39:00,89.4,71.7,29.92,NE,45,8.2,8.2,56,0.00,,---,0.00,VWS V13.01,2013-04-22 19:39:00,
2013-04-22 15:44:00,89.6,71.8,29.92,ENE,68,4.9,4.9,56,0.00,,---,0.00,VWS V13.01,2013-04-22 19:44:00,
2013-04-22 15:49:00,89.9,71.6,29.91,ENE,68,8.9,8.9,55,0.00,,---,0.00,VWS V13.01,2013-04-22 19:49:00,
2013-04-22 15:53:00,90.1,70.7,29.91,ESE,112,10.0,10.0,53,0.00,,---,0.00,VWS V13.01,2013-04-22 19:53:00,
2013-04-22 15:58:00,90.1,70.1,29.91,East,90,9.8,9.8,52,0.00,,---,0.00,VWS V13.01,2013-04-22 19:58:00,
2013-04-22 16:03:00,89.9,68.8,29.91,East,90,11.4,11.4,50,0.00,,---,0.00,VWS V13.01,2013-04-22 20:03:00,
2013-04-22 16:08:00,89.9,68.8,29.91,NE,45,10.0,10.0,50,0.00,,---,0.00,VWS V13.01,2013-04-22 20:08:00,
2013-04-22 16:13:00,89.9,68.8,29.91,East,90,12.9,12.9,50,0.00,,---,0.00,VWS V13.01,2013-04-22 20:13:00,
2013-04-22 16:18:00,90.1,69.6,29.91,ENE,68,8.7,8.7,51,0.00,,---,0.00,VWS V13.01,2013-04-22 20:18:00,
2013-04-22 16:23:00,90.1,69.6,29.91,ENE,68,8.7,8.7,51,0.00,,---,0.00,VWS V13.01,2013-04-22 20:23:00,
2013-04-22 16:28:00,90.3,70.3,29.91,ENE,68,4.9,4.9,52,0.00,,---,0.00,VWS V13.01,2013-04-22 20:28:00,
2013-04-22 16:33:00,90.3,69.7,29.91,ESE,112,3.5,3.5,51,0.00,,---,0.00,VWS V13.01,2013-04-22 20:33:00,
2013-04-22 16:38:00,90.1,70.1,29.91,ENE,68,13.1,13.1,52,0.00,,---,0.00,VWS V13.01,2013-04-22 20:38:00,
2013-04-22 16:43:00,90.1,69.6,29.91,East,90,8.5,8.5,51,0.00,,---,0.00,VWS V13.01,2013-04-22 20:43:00,
2013-04-22 16:48:00,90.1,69.6,29.91,ENE,68,14.3,14.3,51,0.00,,---,0.00,VWS V13.01,2013-04-22 20:48:00,
2013-04-22 16:53:00,90.1,69.0,29.91,ENE,68,13.1,13.1,50,0.00,,---,0.00,VWS V13.01,2013-04-22 20:53:00,
2013-04-22 16:58:00,89.9,68.8,29.91,ENE,68,11.1,11.1,50,0.00,,---,0.00,VWS V13.01,2013-04-22 20:58:00,
2013-04-22 17:03:00,89.9,68.8,29.91,ENE,68,3.8,3.8,50,0.00,,---,0.00,VWS V13.01,2013-04-22 21:03:00,
2013-04-22 17:08:00,89.9,68.8,29.91,ENE,68,11.8,11.8,50,0.00,,---,0.00,VWS V13.01,2013-04-22 21:08:00,
2013-04-22 17:13:00,89.9,69.4,29.91,ESE,112,10.7,10.7,51,0.00,,---,0.00,VWS V13.01,2013-04-22 21:13:00,
2013-04-22 17:18:00,89.9,68.8,29.92,SE,135,6.2,6.2,50,0.00,,---,0.00,VWS V13.01,2013-04-22 21:18:00,
2013-04-22 17:23:00,89.9,69.4,29.92,ENE,68,8.0,8.0,51,0.00,,---,0.00,VWS V13.01,2013-04-22 21:23:00,
2013-04-22 17:28:00,90.1,70.1,29.92,East,90,9.8,9.8,52,0.00,,---,0.00,VWS V13.01,2013-04-22 21:28:00,
2013-04-22 17:33:00,89.7,68.6,29.91,ENE,68,5.5,5.5,50,0.00,,---,0.00,VWS V13.01,2013-04-22 21:33:00,
2013-04-22 17:38:00,89.6,69.1,29.92,East,90,9.6,9.6,51,0.00,,---,0.00,VWS V13.01,2013-04-22 21:38:00,
2013-04-22 17:43:00,89.4,68.9,29.92,ESE,112,5.3,5.3,51,0.00,,---,0.00,VWS V13.01,2013-04-22 21:43:00,
2013-04-22 17:48:00,89.2,69.8,29.92,ENE,68,10.9,10.9,53,0.00,,---,0.00,VWS V13.01,2013-04-22 21:48:00,
2013-04-22 17:53:00,88.8,68.9,29.92,ENE,68,4.0,4.0,52,0.00,,---,0.00,VWS V13.01,2013-04-22 21:53:00,
2013-04-22 17:58:00,88.3,69.6,29.92,East,90,5.1,5.1,54,0.00,,---,0.00,VWS V13.01,2013-04-22 21:58:00,
2013-04-22 18:03:00,87.6,69.4,29.92,NNE,22,0.0,0.0,55,0.00,,---,0.00,VWS V13.01,2013-04-22 22:03:00,
2013-04-22 18:08:00,87.0,68.9,29.92,East,90,6.9,6.9,55,0.00,,---,0.00,VWS V13.01,2013-04-22 22:08:00,
2013-04-22 18:13:00,86.7,69.1,29.93,ENE,68,0.0,0.0,56,0.00,,---,0.00,VWS V13.01,2013-04-22 22:13:00,
2013-04-22 18:18:00,86.1,68.6,29.93,NE,45,4.2,10.0,56,0.00,,---,0.00,VWS V13.01,2013-04-22 22:18:00,
2013-04-22 18:23:00,85.6,68.6,29.93,ENE,68,14.3,14.3,57,0.00,,---,0.00,VWS V13.01,2013-04-22 22:23:00,
2013-04-22 18:28:00,84.9,68.5,29.93,ESE,112,4.6,6.9,58,0.00,,---,0.00,VWS V13.01,2013-04-22 22:28:00,
2013-04-22 18:33:00,84.7,68.8,29.93,ENE,68,6.4,6.4,59,0.00,,---,0.00,VWS V13.01,2013-04-22 22:33:00,
2013-04-22 18:38:00,84.3,68.4,29.93,ENE,68,4.0,4.0,59,0.00,,---,0.00,VWS V13.01,2013-04-22 22:38:00,
2013-04-22 18:43:00,83.8,68.4,29.93,East,90,7.8,7.8,60,0.00,,---,0.00,VWS V13.01,2013-04-22 22:43:00,
2013-04-22 18:48:00,83.4,68.1,29.93,East,90,4.6,4.6,60,0.00,,---,0.00,VWS V13.01,2013-04-22 22:48:00,
2013-04-22 18:53:00,83.4,68.1,29.93,ENE,68,4.9,4.9,60,0.00,,---,0.00,VWS V13.01,2013-04-22 22:53:00,
2013-04-22 18:58:00,83.1,67.8,29.93,East,90,5.1,5.1,60,0.00,,---,0.00,VWS V13.01,2013-04-22 22:58:00,
2013-04-22 19:03:00,82.9,68.1,29.94,ESE,112,3.8,3.8,61,0.00,,---,0.00,VWS V13.01,2013-04-22 23:03:00,
2013-04-22 19:08:00,82.7,68.4,29.94,ENE,68,6.9,6.9,62,0.00,,---,0.00,VWS V13.01,2013-04-22 23:08:00,
2013-04-22 19:13:00,82.5,68.2,29.94,NNE,22,1.7,1.7,62,0.00,,---,0.00,VWS V13.01,2013-04-22 23:13:00,
2013-04-22 19:18:00,82.4,68.6,29.94,East,90,5.3,5.3,63,0.00,,---,0.00,VWS V13.01,2013-04-22 23:18:00,
2013-04-22 19:23:00,82.2,68.4,29.94,East,90,6.2,6.2,63,0.00,,---,0.00,VWS V13.01,2013-04-22 23:23:00,
2013-04-22 19:28:00,82.2,68.4,29.94,East,90,4.6,4.6,63,0.00,,---,0.00,VWS V13.01,2013-04-22 23:28:00,
2013-04-22 19:33:00,82.2,68.4,29.94,East,90,3.3,3.3,63,0.00,,---,0.00,VWS V13.01,2013-04-22 23:33:00,
2013-04-22 19:38:00,82.2,68.4,29.95,ENE,68,5.8,5.8,63,0.00,,---,0.00,VWS V13.01,2013-04-22 23:38:00,
2013-04-22 19:43:00,82.0,68.2,29.95,SSE,158,5.1,5.1,63,0.00,,---,0.00,VWS V13.01,2013-04-22 23:43:00,
2013-04-22 19:48:00,81.8,68.4,29.95,SE,135,0.0,0.0,64,0.00,,---,0.00,VWS V13.01,2013-04-22 23:48:00,
2013-04-22 19:53:00,81.6,67.8,29.95,East,90,7.3,7.3,63,0.00,,---,0.00,VWS V13.01,2013-04-22 23:53:00,
2013-04-22 19:58:00,81.6,67.8,29.95,East,90,5.8,5.8,63,0.00,,---,0.00,VWS V13.01,2013-04-22 23:58:00,
2013-04-22 20:03:00,81.5,67.7,29.95,ENE,68,7.3,7.3,63,0.00,,---,0.00,VWS V13.01,2013-04-23 00:03:00,
2013-04-22 20:08:00,81.3,68.0,29.96,SE,135,4.6,4.6,64,0.00,,---,0.00,VWS V13.01,2013-04-23 00:08:00,
2013-04-22 20:13:00,81.3,68.0,29.96,ENE,68,5.8,5.8,64,0.00,,---,0.00,VWS V13.01,2013-04-23 00:13:00,
2013-04-22 20:18:00,81.1,68.2,29.96,ESE,112,4.0,4.0,65,0.00,,---,0.00,VWS V13.01,2013-04-23 00:18:00,
2013-04-22 20:23:00,81.1,68.2,29.96,East,90,6.0,6.0,65,0.00,,---,0.00,VWS V13.01,2013-04-23 00:23:00,
2013-04-22 20:28:00,81.1,68.2,29.96,East,90,8.5,8.5,65,0.00,,---,0.00,VWS V13.01,2013-04-23 00:28:00,
2013-04-22 20:33:00,81.1,67.8,29.97,ENE,68,5.8,5.8,64,0.00,,---,0.00,VWS V13.01,2013-04-23 00:33:00,
2013-04-22 20:38:00,80.9,68.5,29.97,East,90,10.0,10.0,66,0.00,,---,0.00,VWS V13.01,2013-04-23 00:38:00,
2013-04-22 20:43:00,80.9,68.9,29.97,NE,45,6.7,6.7,67,0.00,,---,0.00,VWS V13.01,2013-04-23 00:43:00,
2013-04-22 20:48:00,80.7,68.3,29.98,ENE,68,4.9,4.9,66,0.00,,---,0.00,VWS V13.01,2013-04-23 00:48:00,
2013-04-22 20:53:00,80.7,67.8,29.97,ENE,68,0.0,0.0,65,0.00,,---,0.00,VWS V13.01,2013-04-23 00:53:00,
2013-04-22 20:58:00,80.7,67.8,29.97,NE,45,4.9,4.9,65,0.00,,---,0.00,VWS V13.01,2013-04-23 00:58:00,
2013-04-22 21:03:00,80.7,67.8,29.98,NE,45,1.3,1.3,65,0.00,,---,0.00,VWS V13.01,2013-04-23 01:03:00,
2013-04-22 21:08:00,80.6,67.8,29.98,East,90,4.2,4.2,65,0.00,,---,0.00,VWS V13.01,2013-04-23 01:08:00,
2013-04-22 21:13:00,80.6,68.2,29.97,ESE,112,3.3,3.3,66,0.00,,---,0.00,VWS V13.01,2013-04-23 01:13:00,
2013-04-22 21:18:00,80.4,68.0,29.98,ENE,68,5.5,5.5,66,0.00,,---,0.00,VWS V13.01,2013-04-23 01:18:00,
2013-04-22 21:23:00,80.4,68.4,29.98,East,90,5.1,5.1,67,0.00,,---,0.00,VWS V13.01,2013-04-23 01:23:00,
2013-04-22 21:28:00,80.4,68.4,29.98,South,180,5.1,5.1,67,0.00,,---,0.00,VWS V13.01,2013-04-23 01:28:00,
2013-04-22 21:33:00,80.4,68.0,29.98,ESE,112,2.2,2.2,66,0.00,,---,0.00,VWS V13.01,2013-04-23 01:33:00,
2013-04-22 21:38:00,80.4,68.4,29.98,NE,45,4.2,4.2,67,0.00,,---,0.00,VWS V13.01,2013-04-23 01:38:00,
2013-04-22 21:43:00,80.2,68.3,29.98,ENE,68,5.1,5.1,67,0.00,,---,0.00,VWS V13.01,2013-04-23 01:43:00,
2013-04-22 21:48:00,80.2,68.3,29.98,East,90,5.8,5.8,67,0.00,,---,0.00,VWS V13.01,2013-04-23 01:48:00,
2013-04-22 21:53:00,80.0,68.1,29.98,NE,45,3.5,3.5,67,0.00,,---,0.00,VWS V13.01,2013-04-23 01:53:00,
2013-04-22 21:58:00,79.8,67.9,29.98,ESE,112,11.1,11.1,67,0.00,,---,0.00,VWS V13.01,2013-04-23 01:58:00,
2013-04-22 22:03:00,79.8,67.9,29.97,ENE,68,4.9,4.9,67,0.00,,---,0.00,VWS V13.01,2013-04-23 02:03:00,
2013-04-22 22:08:00,79.8,67.9,29.98,ENE,68,10.2,10.2,67,0.00,,---,0.00,VWS V13.01,2013-04-23 02:08:00,
2013-04-22 22:13:00,79.8,68.3,29.98,East,90,4.9,4.9,68,0.00,,---,0.00,VWS V13.01,2013-04-23 02:13:00,
2013-04-22 22:18:00,79.8,67.9,29.98,ESE,112,7.8,7.8,67,0.00,,---,0.00,VWS V13.01,2013-04-23 02:18:00,
2013-04-22 22:23:00,79.8,67.9,29.98,ESE,112,2.4,2.4,67,0.00,,---,0.00,VWS V13.01,2013-04-23 02:23:00,
2013-04-22 22:28:00,79.8,68.3,29.98,ESE,112,0.0,0.0,68,0.00,,---,0.00,VWS V13.01,2013-04-23 02:28:00,
2013-04-22 22:33:00,80.0,68.1,29.98,SE,135,6.4,6.4,67,0.00,,---,0.00,VWS V13.01,2013-04-23 02:33:00,
2013-04-22 22:38:00,79.8,67.9,29.98,East,90,3.8,3.8,67,0.00,,---,0.00,VWS V13.01,2013-04-23 02:38:00,
2013-04-22 22:43:00,79.8,67.9,29.98,ENE,68,3.1,3.1,67,0.00,,---,0.00,VWS V13.01,2013-04-23 02:43:00,
2013-04-22 22:48:00,79.7,68.2,29.99,ESE,112,1.1,1.1,68,0.00,,---,0.00,VWS V13.01,2013-04-23 02:48:00,
2013-04-22 22:53:00,79.7,68.2,29.98,East,90,5.3,5.3,68,0.00,,---,0.00,VWS V13.01,2013-04-23 02:53:00,
2013-04-22 22:58:00,79.5,68.0,29.98,ESE,112,0.0,0.0,68,0.00,,---,0.00,VWS V13.01,2013-04-23 02:58:00,
2013-04-22 23:03:00,79.5,68.4,29.98,East,90,8.9,8.9,69,0.00,,---,0.00,VWS V13.01,2013-04-23 03:03:00,
2013-04-22 23:08:00,79.5,68.4,29.98,NE,45,2.4,2.4,69,0.00,,---,0.00,VWS V13.01,2013-04-23 03:08:00,
2013-04-22 23:13:00,79.5,68.4,29.98,SE,135,4.2,4.2,69,0.00,,---,0.00,VWS V13.01,2013-04-23 03:13:00,
2013-04-22 23:18:00,79.5,68.0,29.98,East,90,4.4,4.4,68,0.00,,---,0.00,VWS V13.01,2013-04-23 03:18:00,
2013-04-22 23:23:00,79.3,67.8,29.98,East,90,6.4,6.4,68,0.00,,---,0.00,VWS V13.01,2013-04-23 03:23:00,
2013-04-22 23:28:00,79.3,67.8,29.98,ENE,68,3.8,3.8,68,0.00,,---,0.00,VWS V13.01,2013-04-23 03:28:00,
2013-04-22 23:33:00,79.3,67.8,29.98,ESE,112,6.4,6.4,68,0.00,,---,0.00,VWS V13.01,2013-04-23 03:33:00,
2013-04-22 23:38:00,79.3,68.7,29.98,South,180,10.9,10.9,70,0.00,,---,0.00,VWS V13.01,2013-04-23 03:38:00,
2013-04-22 23:43:00,78.9,68.7,29.98,SSE,158,6.7,6.7,71,0.00,,---,0.00,VWS V13.01,2013-04-23 03:43:00,
2013-04-22 23:48:00,78.6,68.4,29.97,SE,135,2.2,2.2,71,0.00,,---,0.00,VWS V13.01,2013-04-23 03:48:00,
2013-04-22 23:53:00,78.4,68.6,29.98,ESE,112,0.0,0.0,72,0.00,,---,0.00,VWS V13.01,2013-04-23 03:53:00,
2013-04-22 23:58:00,78.2,68.4,29.97,SE,135,5.5,5.5,72,0.00,,---,0.00,VWS V13.01,2013-04-23 03:58:00,